sensor_id;sensor_type;location;lat;lon;timestamp;P1;durP1;ratioP1;P2;durP2;ratioP2
55136;SDS011;41032;47.818;-3.732;2022-09-03T00:06:42;4.55;;;2.35;;
55136;SDS011;41032;47.818;-3.732;2022-09-03T00:09:14;5.63;;;2.42;;
55136;SDS011;41032;47.818;-3.732;2022-09-03T00:11:55;3.83;;;2.70;;
55136;SDS011;41032;47.818;-3.732;2022-09-03T00:14:36;2.78;;;2.22;;
55136;SDS011;41032;47.818;-3.732;2022-09-03T00:17:09;3.70;;;2.40;;
55136;SDS011;41032;47.818;-3.732;2022-09-03T00:20:03;3.30;;;2.60;;
55136;SDS011;41032;47.818;-3.732;2022-09-03T00:22:32;3.15;;;2.38;;
55136;SDS011;41032;47.818;-3.732;2022-09-03T00:25:06;5.25;;;2.92;;
55136;SDS011;41032;47.818;-3.732;2022-09-03T00:27:39;5.20;;;2.58;;
55136;SDS011;41032;47.818;-3.732;2022-09-03T00:30:10;4.32;;;2.72;;
55136;SDS011;41032;47.818;-3.732;2022-09-03T00:32:50;4.57;;;2.85;;
55136;SDS011;41032;47.818;-3.732;2022-09-03T00:35:25;4.70;;;2.67;;
55136;SDS011;41032;47.818;-3.732;2022-09-03T00:37:57;3.33;;;2.67;;
55136;SDS011;41032;47.818;-3.732;2022-09-03T00:40:31;2.90;;;2.60;;
55136;SDS011;41032;47.818;-3.732;2022-09-03T00:43:26;5.30;;;3.33;;
55136;SDS011;41032;47.818;-3.732;2022-09-03T00:51:25;5.28;;;2.88;;
55136;SDS011;41032;47.818;-3.732;2022-09-03T00:54:19;3.92;;;2.63;;
55136;SDS011;41032;47.818;-3.732;2022-09-03T01:00:08;4.22;;;2.60;;
55136;SDS011;41032;47.818;-3.732;2022-09-03T01:10:26;4.95;;;2.83;;
55136;SDS011;41032;47.818;-3.732;2022-09-03T01:13:06;4.13;;;3.28;;
55136;SDS011;41032;47.818;-3.732;2022-09-03T01:24:23;4.40;;;3.30;;
55136;SDS011;41032;47.818;-3.732;2022-09-03T01:29:38;4.32;;;2.90;;
55136;SDS011;41032;47.818;-3.732;2022-09-03T01:32:15;6.13;;;3.70;;
55136;SDS011;41032;47.818;-3.732;2022-09-03T01:37:51;4.10;;;2.65;;
55136;SDS011;41032;47.818;-3.732;2022-09-03T01:48:12;3.35;;;2.38;;
55136;SDS011;41032;47.818;-3.732;2022-09-03T01:51:07;3.30;;;2.92;;
55136;SDS011;41032;47.818;-3.732;2022-09-03T01:59:04;3.15;;;2.83;;
55136;SDS011;41032;47.818;-3.732;2022-09-03T02:01:40;4.00;;;2.83;;
55136;SDS011;41032;47.818;-3.732;2022-09-03T02:04:17;3.85;;;3.30;;
55136;SDS011;41032;47.818;-3.732;2022-09-03T02:06:55;3.90;;;2.92;;
55136;SDS011;41032;47.818;-3.732;2022-09-03T02:11:54;3.58;;;2.97;;
55136;SDS011;41032;47.818;-3.732;2022-09-03T02:14:28;5.35;;;3.00;;
55136;SDS011;41032;47.818;-3.732;2022-09-03T02:16:57;3.22;;;2.70;;
55136;SDS011;41032;47.818;-3.732;2022-09-03T02:19:27;3.08;;;2.30;;
55136;SDS011;41032;47.818;-3.732;2022-09-03T02:21:57;3.15;;;2.40;;
55136;SDS011;41032;47.818;-3.732;2022-09-03T02:24:26;3.85;;;2.50;;
55136;SDS011;41032;47.818;-3.732;2022-09-03T02:26:55;3.08;;;2.40;;
55136;SDS011;41032;47.818;-3.732;2022-09-03T02:29:24;2.88;;;2.28;;
55136;SDS011;41032;47.818;-3.732;2022-09-03T02:31:52;2.25;;;2.05;;
55136;SDS011;41032;47.818;-3.732;2022-09-03T02:34:21;2.28;;;2.08;;
55136;SDS011;41032;47.818;-3.732;2022-09-03T02:36:49;2.90;;;2.60;;
55136;SDS011;41032;47.818;-3.732;2022-09-03T02:39:19;4.78;;;2.30;;
55136;SDS011;41032;47.818;-3.732;2022-09-03T02:41:50;3.10;;;2.45;;
55136;SDS011;41032;47.818;-3.732;2022-09-03T02:44:23;2.40;;;2.20;;
55136;SDS011;41032;47.818;-3.732;2022-09-03T02:47:00;2.58;;;2.33;;
55136;SDS011;41032;47.818;-3.732;2022-09-03T02:49:30;2.63;;;2.28;;
55136;SDS011;41032;47.818;-3.732;2022-09-03T02:52:04;2.40;;;2.00;;
55136;SDS011;41032;47.818;-3.732;2022-09-03T02:54:35;7.32;;;2.35;;
55136;SDS011;41032;47.818;-3.732;2022-09-03T02:57:05;2.65;;;2.15;;
55136;SDS011;41032;47.818;-3.732;2022-09-03T02:59:35;2.53;;;2.13;;
55136;SDS011;41032;47.818;-3.732;2022-09-03T03:02:04;3.05;;;2.15;;
55136;SDS011;41032;47.818;-3.732;2022-09-03T03:04:33;2.35;;;2.13;;
55136;SDS011;41032;47.818;-3.732;2022-09-03T03:07:01;2.15;;;1.95;;
55136;SDS011;41032;47.818;-3.732;2022-09-03T03:09:30;2.90;;;2.08;;
55136;SDS011;41032;47.818;-3.732;2022-09-03T03:11:59;2.78;;;2.10;;
55136;SDS011;41032;47.818;-3.732;2022-09-03T03:14:27;2.15;;;1.95;;
55136;SDS011;41032;47.818;-3.732;2022-09-03T03:16:56;1.85;;;1.73;;
55136;SDS011;41032;47.818;-3.732;2022-09-03T03:19:24;2.10;;;1.90;;
55136;SDS011;41032;47.818;-3.732;2022-09-03T03:21:53;2.15;;;1.90;;
55136;SDS011;41032;47.818;-3.732;2022-09-03T03:24:21;2.28;;;2.00;;
55136;SDS011;41032;47.818;-3.732;2022-09-03T03:26:50;2.53;;;2.00;;
55136;SDS011;41032;47.818;-3.732;2022-09-03T03:29:22;2.35;;;1.80;;
55136;SDS011;41032;47.818;-3.732;2022-09-03T03:31:51;2.50;;;2.15;;
55136;SDS011;41032;47.818;-3.732;2022-09-03T03:34:19;2.30;;;1.88;;
55136;SDS011;41032;47.818;-3.732;2022-09-03T03:36:52;2.05;;;1.77;;
55136;SDS011;41032;47.818;-3.732;2022-09-03T03:39:21;2.80;;;2.00;;
55136;SDS011;41032;47.818;-3.732;2022-09-03T03:41:49;2.60;;;2.08;;
55136;SDS011;41032;47.818;-3.732;2022-09-03T03:44:18;2.50;;;1.80;;
55136;SDS011;41032;47.818;-3.732;2022-09-03T03:46:47;2.67;;;2.20;;
55136;SDS011;41032;47.818;-3.732;2022-09-03T03:49:15;1.58;;;1.45;;
55136;SDS011;41032;47.818;-3.732;2022-09-03T03:51:44;2.05;;;1.30;;
55136;SDS011;41032;47.818;-3.732;2022-09-03T03:54:12;1.60;;;1.50;;
55136;SDS011;41032;47.818;-3.732;2022-09-03T03:56:41;1.73;;;1.63;;
55136;SDS011;41032;47.818;-3.732;2022-09-03T03:59:10;2.08;;;1.70;;
55136;SDS011;41032;47.818;-3.732;2022-09-03T04:01:38;1.85;;;1.75;;
55136;SDS011;41032;47.818;-3.732;2022-09-03T04:04:11;2.63;;;2.03;;
55136;SDS011;41032;47.818;-3.732;2022-09-03T04:06:39;3.28;;;2.00;;
55136;SDS011;41032;47.818;-3.732;2022-09-03T04:09:08;2.15;;;1.70;;
55136;SDS011;41032;47.818;-3.732;2022-09-03T04:11:41;2.45;;;1.80;;
55136;SDS011;41032;47.818;-3.732;2022-09-03T04:14:10;3.10;;;1.90;;
55136;SDS011;41032;47.818;-3.732;2022-09-03T04:16:38;2.40;;;1.80;;
55136;SDS011;41032;47.818;-3.732;2022-09-03T04:19:07;3.13;;;2.00;;
55136;SDS011;41032;47.818;-3.732;2022-09-03T04:21:36;2.90;;;1.80;;
55136;SDS011;41032;47.818;-3.732;2022-09-03T04:24:04;3.10;;;1.83;;
55136;SDS011;41032;47.818;-3.732;2022-09-03T04:26:33;3.63;;;2.00;;
55136;SDS011;41032;47.818;-3.732;2022-09-03T04:29:03;3.25;;;1.50;;
55136;SDS011;41032;47.818;-3.732;2022-09-03T04:31:32;3.35;;;1.80;;
55136;SDS011;41032;47.818;-3.732;2022-09-03T04:34:01;3.42;;;1.65;;
55136;SDS011;41032;47.818;-3.732;2022-09-03T04:36:31;3.10;;;2.28;;
55136;SDS011;41032;47.818;-3.732;2022-09-03T04:38:59;3.20;;;2.35;;
55136;SDS011;41032;47.818;-3.732;2022-09-03T04:41:29;3.28;;;2.25;;
55136;SDS011;41032;47.818;-3.732;2022-09-03T04:43:59;2.85;;;2.33;;
55136;SDS011;41032;47.818;-3.732;2022-09-03T04:46:28;3.42;;;2.10;;
55136;SDS011;41032;47.818;-3.732;2022-09-03T04:48:57;3.28;;;2.33;;
55136;SDS011;41032;47.818;-3.732;2022-09-03T04:51:27;4.40;;;2.50;;
55136;SDS011;41032;47.818;-3.732;2022-09-03T04:53:56;2.95;;;2.15;;
55136;SDS011;41032;47.818;-3.732;2022-09-03T04:56:26;4.07;;;2.22;;
55136;SDS011;41032;47.818;-3.732;2022-09-03T04:58:56;2.70;;;2.13;;
55136;SDS011;41032;47.818;-3.732;2022-09-03T05:01:26;4.97;;;2.38;;
55136;SDS011;41032;47.818;-3.732;2022-09-03T05:03:56;3.40;;;2.33;;
55136;SDS011;41032;47.818;-3.732;2022-09-03T05:06:24;5.30;;;2.50;;
55136;SDS011;41032;47.818;-3.732;2022-09-03T05:08:53;4.25;;;2.40;;
55136;SDS011;41032;47.818;-3.732;2022-09-03T05:11:22;5.88;;;2.05;;
55136;SDS011;41032;47.818;-3.732;2022-09-03T05:13:52;3.10;;;2.17;;
55136;SDS011;41032;47.818;-3.732;2022-09-03T05:16:22;3.63;;;2.00;;
55136;SDS011;41032;47.818;-3.732;2022-09-03T05:18:52;7.18;;;2.70;;
55136;SDS011;41032;47.818;-3.732;2022-09-03T05:21:21;4.55;;;2.90;;
55136;SDS011;41032;47.818;-3.732;2022-09-03T05:23:51;3.78;;;2.88;;
55136;SDS011;41032;47.818;-3.732;2022-09-03T05:26:20;4.13;;;2.28;;
55136;SDS011;41032;47.818;-3.732;2022-09-03T05:28:54;4.00;;;2.63;;
55136;SDS011;41032;47.818;-3.732;2022-09-03T05:31:24;2.65;;;2.22;;
55136;SDS011;41032;47.818;-3.732;2022-09-03T05:33:54;3.95;;;2.70;;
55136;SDS011;41032;47.818;-3.732;2022-09-03T05:36:24;3.75;;;2.50;;
55136;SDS011;41032;47.818;-3.732;2022-09-03T05:38:56;2.75;;;2.22;;
55136;SDS011;41032;47.818;-3.732;2022-09-03T05:41:27;4.03;;;2.88;;
55136;SDS011;41032;47.818;-3.732;2022-09-03T05:43:59;4.75;;;2.55;;
55136;SDS011;41032;47.818;-3.732;2022-09-03T05:46:31;2.67;;;2.30;;
55136;SDS011;41032;47.818;-3.732;2022-09-03T05:49:04;3.20;;;2.20;;
55136;SDS011;41032;47.818;-3.732;2022-09-03T05:51:34;4.28;;;2.13;;
55136;SDS011;41032;47.818;-3.732;2022-09-03T05:54:04;4.18;;;2.70;;
55136;SDS011;41032;47.818;-3.732;2022-09-03T05:56:34;3.28;;;2.40;;
55136;SDS011;41032;47.818;-3.732;2022-09-03T05:59:05;4.60;;;2.85;;
55136;SDS011;41032;47.818;-3.732;2022-09-03T06:01:35;4.22;;;2.38;;
55136;SDS011;41032;47.818;-3.732;2022-09-03T06:04:06;4.28;;;2.55;;
55136;SDS011;41032;47.818;-3.732;2022-09-03T06:06:37;6.72;;;3.40;;
55136;SDS011;41032;47.818;-3.732;2022-09-03T06:09:09;7.43;;;2.92;;
55136;SDS011;41032;47.818;-3.732;2022-09-03T06:11:39;3.95;;;2.50;;
55136;SDS011;41032;47.818;-3.732;2022-09-03T06:14:10;3.78;;;2.70;;
55136;SDS011;41032;47.818;-3.732;2022-09-03T06:16:41;7.18;;;2.92;;
55136;SDS011;41032;47.818;-3.732;2022-09-03T06:19:10;5.25;;;3.13;;
55136;SDS011;41032;47.818;-3.732;2022-09-03T06:21:40;7.90;;;3.47;;
55136;SDS011;41032;47.818;-3.732;2022-09-03T06:24:10;6.85;;;3.20;;
55136;SDS011;41032;47.818;-3.732;2022-09-03T06:26:43;4.18;;;2.95;;
55136;SDS011;41032;47.818;-3.732;2022-09-03T06:29:11;4.95;;;2.63;;
55136;SDS011;41032;47.818;-3.732;2022-09-03T06:31:40;3.55;;;2.80;;
55136;SDS011;41032;47.818;-3.732;2022-09-03T06:34:08;9.02;;;3.38;;
55136;SDS011;41032;47.818;-3.732;2022-09-03T06:36:37;6.43;;;3.30;;
55136;SDS011;41032;47.818;-3.732;2022-09-03T06:39:06;3.70;;;2.78;;
55136;SDS011;41032;47.818;-3.732;2022-09-03T06:41:35;3.75;;;2.78;;
55136;SDS011;41032;47.818;-3.732;2022-09-03T06:44:04;8.90;;;3.13;;
55136;SDS011;41032;47.818;-3.732;2022-09-03T06:46:37;5.95;;;3.35;;
55136;SDS011;41032;47.818;-3.732;2022-09-03T06:49:07;7.90;;;3.17;;
55136;SDS011;41032;47.818;-3.732;2022-09-03T06:51:37;7.15;;;3.10;;
55136;SDS011;41032;47.818;-3.732;2022-09-03T06:54:06;7.38;;;3.13;;
55136;SDS011;41032;47.818;-3.732;2022-09-03T06:56:36;8.73;;;3.15;;
55136;SDS011;41032;47.818;-3.732;2022-09-03T06:59:06;8.70;;;3.30;;
55136;SDS011;41032;47.818;-3.732;2022-09-03T07:01:37;8.32;;;3.22;;
55136;SDS011;41032;47.818;-3.732;2022-09-03T07:04:07;6.43;;;3.03;;
55136;SDS011;41032;47.818;-3.732;2022-09-03T07:06:37;8.18;;;2.95;;
55136;SDS011;41032;47.818;-3.732;2022-09-03T07:09:07;6.55;;;3.00;;
55136;SDS011;41032;47.818;-3.732;2022-09-03T07:11:36;9.05;;;3.33;;
55136;SDS011;41032;47.818;-3.732;2022-09-03T07:16:38;4.38;;;2.90;;
55136;SDS011;41032;47.818;-3.732;2022-09-03T07:19:08;5.65;;;2.88;;
55136;SDS011;41032;47.818;-3.732;2022-09-03T07:21:38;4.95;;;2.70;;
55136;SDS011;41032;47.818;-3.732;2022-09-03T07:24:08;5.32;;;2.83;;
55136;SDS011;41032;47.818;-3.732;2022-09-03T07:26:38;5.35;;;2.75;;
55136;SDS011;41032;47.818;-3.732;2022-09-03T07:29:09;9.77;;;2.70;;
55136;SDS011;41032;47.818;-3.732;2022-09-03T07:31:39;6.70;;;2.67;;
55136;SDS011;41032;47.818;-3.732;2022-09-03T07:34:10;5.43;;;2.75;;
55136;SDS011;41032;47.818;-3.732;2022-09-03T07:36:40;5.15;;;2.75;;
55136;SDS011;41032;47.818;-3.732;2022-09-03T07:39:12;3.13;;;2.53;;
55136;SDS011;41032;47.818;-3.732;2022-09-03T07:41:42;17.08;;;2.92;;
55136;SDS011;41032;47.818;-3.732;2022-09-03T07:44:12;5.32;;;2.78;;
55136;SDS011;41032;47.818;-3.732;2022-09-03T07:46:44;6.05;;;2.60;;
55136;SDS011;41032;47.818;-3.732;2022-09-03T07:49:12;7.65;;;2.60;;
55136;SDS011;41032;47.818;-3.732;2022-09-03T07:51:43;3.60;;;2.63;;
55136;SDS011;41032;47.818;-3.732;2022-09-03T07:54:15;5.80;;;2.92;;
55136;SDS011;41032;47.818;-3.732;2022-09-03T07:56:45;7.00;;;2.47;;
55136;SDS011;41032;47.818;-3.732;2022-09-03T07:59:13;6.93;;;2.42;;
55136;SDS011;41032;47.818;-3.732;2022-09-03T08:01:41;5.82;;;2.42;;
55136;SDS011;41032;47.818;-3.732;2022-09-03T08:04:10;5.90;;;2.20;;
55136;SDS011;41032;47.818;-3.732;2022-09-03T08:06:39;6.10;;;2.40;;
55136;SDS011;41032;47.818;-3.732;2022-09-03T08:09:08;6.40;;;2.45;;
55136;SDS011;41032;47.818;-3.732;2022-09-03T08:11:40;9.48;;;1.80;;
55136;SDS011;41032;47.818;-3.732;2022-09-03T08:14:10;3.75;;;2.03;;
55136;SDS011;41032;47.818;-3.732;2022-09-03T08:16:42;5.13;;;1.63;;
55136;SDS011;41032;47.818;-3.732;2022-09-03T08:19:12;6.07;;;2.10;;
55136;SDS011;41032;47.818;-3.732;2022-09-03T08:21:42;3.75;;;1.65;;
55136;SDS011;41032;47.818;-3.732;2022-09-03T08:24:10;4.60;;;1.30;;
55136;SDS011;41032;47.818;-3.732;2022-09-03T08:26:41;4.40;;;1.50;;
55136;SDS011;41032;47.818;-3.732;2022-09-03T08:29:09;5.40;;;1.77;;
55136;SDS011;41032;47.818;-3.732;2022-09-03T08:31:37;2.85;;;1.27;;
55136;SDS011;41032;47.818;-3.732;2022-09-03T08:34:05;3.75;;;1.63;;
55136;SDS011;41032;47.818;-3.732;2022-09-03T08:36:37;5.15;;;1.58;;
55136;SDS011;41032;47.818;-3.732;2022-09-03T08:39:06;3.38;;;1.55;;
55136;SDS011;41032;47.818;-3.732;2022-09-03T08:41:47;4.75;;;1.58;;
55136;SDS011;41032;47.818;-3.732;2022-09-03T08:45:01;2.33;;;0.90;;
55136;SDS011;41032;47.818;-3.732;2022-09-03T08:50:03;5.45;;;1.60;;
55136;SDS011;41032;47.818;-3.732;2022-09-03T08:53:23;3.67;;;1.27;;
55136;SDS011;41032;47.818;-3.732;2022-09-03T08:55:30;4.95;;;1.60;;
55136;SDS011;41032;47.818;-3.732;2022-09-03T08:58:12;5.78;;;1.30;;
55136;SDS011;41032;47.818;-3.732;2022-09-03T09:06:06;5.07;;;1.55;;
55136;SDS011;41032;47.818;-3.732;2022-09-03T09:08:43;7.60;;;1.73;;
55136;SDS011;41032;47.818;-3.732;2022-09-03T09:11:19;5.80;;;1.40;;
55136;SDS011;41032;47.818;-3.732;2022-09-03T09:14:13;6.63;;;1.80;;
55136;SDS011;41032;47.818;-3.732;2022-09-03T09:22:13;5.30;;;1.85;;
55136;SDS011;41032;47.818;-3.732;2022-09-03T09:25:06;7.38;;;1.38;;
55136;SDS011;41032;47.818;-3.732;2022-09-03T09:27:41;4.70;;;1.50;;
55136;SDS011;41032;47.818;-3.732;2022-09-03T09:30:17;3.97;;;1.95;;
55136;SDS011;41032;47.818;-3.732;2022-09-03T09:32:45;5.50;;;1.45;;
55136;SDS011;41032;47.818;-3.732;2022-09-03T09:35:17;8.13;;;1.95;;
55136;SDS011;41032;47.818;-3.732;2022-09-03T09:37:49;5.68;;;1.65;;
55136;SDS011;41032;47.818;-3.732;2022-09-03T09:40:38;5.75;;;1.58;;
55136;SDS011;41032;47.818;-3.732;2022-09-03T09:43:07;7.00;;;1.42;;
55136;SDS011;41032;47.818;-3.732;2022-09-03T09:45:42;4.53;;;1.40;;
55136;SDS011;41032;47.818;-3.732;2022-09-03T09:48:30;6.68;;;1.63;;
55136;SDS011;41032;47.818;-3.732;2022-09-03T09:51:19;6.03;;;1.90;;
55136;SDS011;41032;47.818;-3.732;2022-09-03T09:53:47;6.38;;;1.80;;
55136;SDS011;41032;47.818;-3.732;2022-09-03T09:56:25;7.80;;;1.88;;
55136;SDS011;41032;47.818;-3.732;2022-09-03T09:59:13;5.72;;;1.80;;
55136;SDS011;41032;47.818;-3.732;2022-09-03T10:01:40;5.57;;;1.55;;
55136;SDS011;41032;47.818;-3.732;2022-09-03T10:04:11;5.35;;;2.10;;
55136;SDS011;41032;47.818;-3.732;2022-09-03T10:06:40;4.72;;;1.65;;
55136;SDS011;41032;47.818;-3.732;2022-09-03T10:09:21;9.13;;;2.30;;
55136;SDS011;41032;47.818;-3.732;2022-09-03T10:23:20;9.73;;;1.73;;
55136;SDS011;41032;47.818;-3.732;2022-09-03T10:26:13;5.28;;;1.70;;
55136;SDS011;41032;47.818;-3.732;2022-09-03T10:28:41;8.18;;;1.90;;
55136;SDS011;41032;47.818;-3.732;2022-09-03T10:33:40;9.57;;;2.22;;
55136;SDS011;41032;47.818;-3.732;2022-09-03T10:38:45;6.00;;;1.90;;
55136;SDS011;41032;47.818;-3.732;2022-09-03T10:41:21;7.47;;;2.38;;
55136;SDS011;41032;47.818;-3.732;2022-09-03T10:50:00;4.47;;;1.77;;
55136;SDS011;41032;47.818;-3.732;2022-09-03T11:00:46;8.65;;;2.10;;
55136;SDS011;41032;47.818;-3.732;2022-09-03T11:06:12;5.43;;;1.65;;
55136;SDS011;41032;47.818;-3.732;2022-09-03T11:08:54;4.90;;;1.75;;
55136;SDS011;41032;47.818;-3.732;2022-09-03T11:11:28;5.15;;;1.85;;
55136;SDS011;41032;47.818;-3.732;2022-09-03T11:14:06;6.85;;;1.90;;
55136;SDS011;41032;47.818;-3.732;2022-09-03T11:16:55;5.45;;;1.60;;
55136;SDS011;41032;47.818;-3.732;2022-09-03T11:19:34;7.15;;;1.85;;
55136;SDS011;41032;47.818;-3.732;2022-09-03T11:22:05;7.85;;;2.10;;
55136;SDS011;41032;47.818;-3.732;2022-09-03T11:24:33;6.47;;;1.83;;
55136;SDS011;41032;47.818;-3.732;2022-09-03T11:30:02;6.00;;;2.05;;
55136;SDS011;41032;47.818;-3.732;2022-09-03T11:35:40;8.32;;;2.53;;
55136;SDS011;41032;47.818;-3.732;2022-09-03T11:38:09;7.20;;;1.88;;
55136;SDS011;41032;47.818;-3.732;2022-09-03T11:41:32;11.32;;;2.45;;
55136;SDS011;41032;47.818;-3.732;2022-09-03T11:43:54;8.20;;;1.98;;
55136;SDS011;41032;47.818;-3.732;2022-09-03T11:48:50;9.55;;;1.95;;
55136;SDS011;41032;47.818;-3.732;2022-09-03T11:53:56;7.80;;;2.10;;
55136;SDS011;41032;47.818;-3.732;2022-09-03T11:56:25;7.93;;;1.90;;
55136;SDS011;41032;47.818;-3.732;2022-09-03T11:59:16;7.65;;;2.17;;
55136;SDS011;41032;47.818;-3.732;2022-09-03T12:01:45;7.47;;;2.13;;
55136;SDS011;41032;47.818;-3.732;2022-09-03T12:04:24;13.63;;;2.47;;
55136;SDS011;41032;47.818;-3.732;2022-09-03T12:12:39;9.52;;;2.22;;
55136;SDS011;41032;47.818;-3.732;2022-09-03T12:18:23;5.00;;;1.58;;
55136;SDS011;41032;47.818;-3.732;2022-09-03T12:25:58;8.85;;;2.05;;
55136;SDS011;41032;47.818;-3.732;2022-09-03T12:28:34;7.65;;;2.00;;
55136;SDS011;41032;47.818;-3.732;2022-09-03T12:31:24;4.30;;;1.58;;
55136;SDS011;41032;47.818;-3.732;2022-09-03T12:33:55;7.50;;;2.13;;
55136;SDS011;41032;47.818;-3.732;2022-09-03T12:36:38;7.63;;;1.87;;
55136;SDS011;41032;47.818;-3.732;2022-09-03T12:39:17;4.53;;;1.92;;
55136;SDS011;41032;47.818;-3.732;2022-09-03T12:44:24;8.52;;;2.30;;
55136;SDS011;41032;47.818;-3.732;2022-09-03T12:47:14;8.30;;;2.00;;
55136;SDS011;41032;47.818;-3.732;2022-09-03T12:49:43;7.57;;;2.00;;
55136;SDS011;41032;47.818;-3.732;2022-09-03T12:54:53;6.43;;;2.13;;
55136;SDS011;41032;47.818;-3.732;2022-09-03T12:57:43;7.72;;;1.80;;
55136;SDS011;41032;47.818;-3.732;2022-09-03T13:00:15;5.97;;;2.10;;
55136;SDS011;41032;47.818;-3.732;2022-09-03T13:05:32;5.30;;;1.55;;
55136;SDS011;41032;47.818;-3.732;2022-09-03T13:08:09;7.72;;;1.80;;
55136;SDS011;41032;47.818;-3.732;2022-09-03T13:10:45;6.95;;;2.10;;
55136;SDS011;41032;47.818;-3.732;2022-09-03T13:13:22;5.25;;;1.83;;
55136;SDS011;41032;47.818;-3.732;2022-09-03T13:18:37;8.10;;;1.80;;
55136;SDS011;41032;47.818;-3.732;2022-09-03T13:21:19;7.47;;;1.73;;
55136;SDS011;41032;47.818;-3.732;2022-09-03T13:24:05;6.65;;;1.70;;
55136;SDS011;41032;47.818;-3.732;2022-09-03T13:26:40;8.68;;;2.00;;
55136;SDS011;41032;47.818;-3.732;2022-09-03T13:29:14;10.68;;;1.98;;
55136;SDS011;41032;47.818;-3.732;2022-09-03T13:31:59;5.88;;;1.67;;
55136;SDS011;41032;47.818;-3.732;2022-09-03T13:34:35;4.68;;;1.48;;
55136;SDS011;41032;47.818;-3.732;2022-09-03T13:39:57;9.02;;;1.98;;
55136;SDS011;41032;47.818;-3.732;2022-09-03T13:45:42;6.70;;;2.08;;
55136;SDS011;41032;47.818;-3.732;2022-09-03T13:47:49;4.90;;;1.92;;
55136;SDS011;41032;47.818;-3.732;2022-09-03T13:56:12;7.18;;;2.30;;
55136;SDS011;41032;47.818;-3.732;2022-09-03T13:58:47;9.40;;;2.17;;
55136;SDS011;41032;47.818;-3.732;2022-09-03T14:01:40;8.45;;;1.95;;
55136;SDS011;41032;47.818;-3.732;2022-09-03T14:04:39;4.55;;;2.13;;
55136;SDS011;41032;47.818;-3.732;2022-09-03T14:07:12;9.85;;;2.08;;
55136;SDS011;41032;47.818;-3.732;2022-09-03T14:17:48;6.80;;;1.85;;
55136;SDS011;41032;47.818;-3.732;2022-09-03T14:23:23;6.03;;;1.52;;
55136;SDS011;41032;47.818;-3.732;2022-09-03T14:28:29;7.13;;;1.80;;
55136;SDS011;41032;47.818;-3.732;2022-09-03T14:36:44;4.97;;;1.70;;
55136;SDS011;41032;47.818;-3.732;2022-09-03T14:39:36;5.35;;;1.73;;
55136;SDS011;41032;47.818;-3.732;2022-09-03T14:42:33;7.28;;;2.00;;
55136;SDS011;41032;47.818;-3.732;2022-09-03T14:45:12;8.13;;;2.13;;
55136;SDS011;41032;47.818;-3.732;2022-09-03T14:51:03;6.75;;;1.95;;
55136;SDS011;41032;47.818;-3.732;2022-09-03T15:07:35;7.25;;;2.45;;
55136;SDS011;41032;47.818;-3.732;2022-09-03T15:12:54;6.70;;;2.13;;
55136;SDS011;41032;47.818;-3.732;2022-09-03T15:15:29;8.25;;;2.17;;
55136;SDS011;41032;47.818;-3.732;2022-09-03T15:18:09;8.30;;;2.25;;
55136;SDS011;41032;47.818;-3.732;2022-09-03T15:20:53;9.93;;;2.20;;
55136;SDS011;41032;47.818;-3.732;2022-09-03T15:23:47;8.27;;;2.22;;
55136;SDS011;41032;47.818;-3.732;2022-09-03T15:26:27;9.18;;;2.50;;
55136;SDS011;41032;47.818;-3.732;2022-09-03T15:34:41;6.10;;;2.00;;
55136;SDS011;41032;47.818;-3.732;2022-09-03T15:37:20;8.20;;;2.15;;
55136;SDS011;41032;47.818;-3.732;2022-09-03T15:40:21;8.60;;;2.53;;
55136;SDS011;41032;47.818;-3.732;2022-09-03T15:42:54;8.27;;;2.92;;
55136;SDS011;41032;47.818;-3.732;2022-09-03T15:45:31;7.28;;;2.22;;
55136;SDS011;41032;47.818;-3.732;2022-09-03T15:48:13;12.02;;;2.58;;
55136;SDS011;41032;47.818;-3.732;2022-09-03T15:50:49;8.32;;;2.50;;
55136;SDS011;41032;47.818;-3.732;2022-09-03T15:59:14;7.90;;;2.42;;
55136;SDS011;41032;47.818;-3.732;2022-09-03T16:01:51;11.00;;;2.45;;
55136;SDS011;41032;47.818;-3.732;2022-09-03T16:04:26;10.95;;;2.42;;
55136;SDS011;41032;47.818;-3.732;2022-09-03T16:07:26;12.02;;;2.58;;
55136;SDS011;41032;47.818;-3.732;2022-09-03T16:10:16;12.48;;;2.85;;
55136;SDS011;41032;47.818;-3.732;2022-09-03T16:15:25;15.07;;;3.67;;
55136;SDS011;41032;47.818;-3.732;2022-09-03T16:17:57;10.25;;;2.95;;
55136;SDS011;41032;47.818;-3.732;2022-09-03T16:20:37;11.90;;;2.85;;
55136;SDS011;41032;47.818;-3.732;2022-09-03T16:25:51;13.45;;;3.70;;
55136;SDS011;41032;47.818;-3.732;2022-09-03T16:28:51;12.43;;;3.15;;
55136;SDS011;41032;47.818;-3.732;2022-09-03T16:34:07;16.30;;;3.42;;
55136;SDS011;41032;47.818;-3.732;2022-09-03T16:39:42;10.50;;;3.15;;
55136;SDS011;41032;47.818;-3.732;2022-09-03T16:42:39;11.55;;;3.25;;
55136;SDS011;41032;47.818;-3.732;2022-09-03T16:51:01;9.30;;;2.53;;
55136;SDS011;41032;47.818;-3.732;2022-09-03T16:53:39;12.73;;;3.47;;
55136;SDS011;41032;47.818;-3.732;2022-09-03T16:59:12;12.05;;;3.40;;
55136;SDS011;41032;47.818;-3.732;2022-09-03T17:10:36;14.27;;;3.53;;
55136;SDS011;41032;47.818;-3.732;2022-09-03T17:13:13;12.40;;;3.13;;
55136;SDS011;41032;47.818;-3.732;2022-09-03T17:18:40;14.73;;;3.38;;
55136;SDS011;41032;47.818;-3.732;2022-09-03T17:30:35;13.05;;;3.28;;
55136;SDS011;41032;47.818;-3.732;2022-09-03T17:33:13;14.25;;;3.35;;
55136;SDS011;41032;47.818;-3.732;2022-09-03T17:38:28;10.40;;;2.67;;
55136;SDS011;41032;47.818;-3.732;2022-09-03T17:41:23;10.73;;;2.65;;
55136;SDS011;41032;47.818;-3.732;2022-09-03T17:44:09;15.43;;;4.13;;
55136;SDS011;41032;47.818;-3.732;2022-09-03T17:49:53;9.73;;;2.67;;
55136;SDS011;41032;47.818;-3.732;2022-09-03T17:58:42;9.85;;;2.97;;
55136;SDS011;41032;47.818;-3.732;2022-09-03T18:01:04;10.07;;;2.75;;
55136;SDS011;41032;47.818;-3.732;2022-09-03T18:03:47;10.60;;;2.70;;
55136;SDS011;41032;47.818;-3.732;2022-09-03T18:09:30;13.40;;;3.13;;
55136;SDS011;41032;47.818;-3.732;2022-09-03T18:12:06;10.88;;;3.30;;
55136;SDS011;41032;47.818;-3.732;2022-09-03T18:17:26;8.82;;;2.92;;
55136;SDS011;41032;47.818;-3.732;2022-09-03T18:20:16;12.60;;;3.83;;
55136;SDS011;41032;47.818;-3.732;2022-09-03T18:23:06;11.88;;;3.47;;
55136;SDS011;41032;47.818;-3.732;2022-09-03T18:25:59;13.50;;;2.97;;
55136;SDS011;41032;47.818;-3.732;2022-09-03T18:29:34;13.75;;;2.92;;
55136;SDS011;41032;47.818;-3.732;2022-09-03T18:31:58;8.45;;;2.53;;
55136;SDS011;41032;47.818;-3.732;2022-09-03T18:34:46;10.07;;;2.88;;
55136;SDS011;41032;47.818;-3.732;2022-09-03T18:37:34;10.55;;;3.25;;
55136;SDS011;41032;47.818;-3.732;2022-09-03T18:40:23;13.55;;;2.83;;
55136;SDS011;41032;47.818;-3.732;2022-09-03T18:43:23;11.13;;;2.80;;
55136;SDS011;41032;47.818;-3.732;2022-09-03T18:46:15;8.40;;;2.70;;
55136;SDS011;41032;47.818;-3.732;2022-09-03T18:49:08;11.77;;;2.90;;
55136;SDS011;41032;47.818;-3.732;2022-09-03T18:52:03;9.65;;;2.50;;
55136;SDS011;41032;47.818;-3.732;2022-09-03T18:55:19;10.93;;;2.67;;
55136;SDS011;41032;47.818;-3.732;2022-09-03T18:58:29;8.75;;;2.30;;
55136;SDS011;41032;47.818;-3.732;2022-09-03T19:01:33;9.65;;;2.80;;
55136;SDS011;41032;47.818;-3.732;2022-09-03T19:07:18;8.52;;;2.83;;
55136;SDS011;41032;47.818;-3.732;2022-09-03T19:10:21;11.75;;;2.65;;
55136;SDS011;41032;47.818;-3.732;2022-09-03T19:13:55;9.20;;;2.63;;
55136;SDS011;41032;47.818;-3.732;2022-09-03T19:19:23;10.05;;;2.88;;
55136;SDS011;41032;47.818;-3.732;2022-09-03T19:25:22;7.68;;;2.70;;
55136;SDS011;41032;47.818;-3.732;2022-09-03T19:28:29;9.68;;;2.78;;
55136;SDS011;41032;47.818;-3.732;2022-09-03T19:37:11;8.27;;;2.15;;
55136;SDS011;41032;47.818;-3.732;2022-09-03T19:55:25;10.25;;;2.72;;
55136;SDS011;41032;47.818;-3.732;2022-09-03T19:58:16;11.02;;;2.78;;
55136;SDS011;41032;47.818;-3.732;2022-09-03T20:01:05;9.07;;;2.83;;
55136;SDS011;41032;47.818;-3.732;2022-09-03T20:03:53;12.10;;;2.47;;
55136;SDS011;41032;47.818;-3.732;2022-09-03T20:06:43;10.27;;;3.53;;
55136;SDS011;41032;47.818;-3.732;2022-09-03T20:09:33;10.63;;;3.03;;
55136;SDS011;41032;47.818;-3.732;2022-09-03T20:12:24;10.48;;;2.75;;